ADDS METAR Data INFO
IDs: Format: Raw Decoded Include TAF

Data at: 0234 UTC 22 Jul 2017

KGPM 220215Z AUTO 11006KT 10SM CLR 32/19 A2992 RMK AO2 T03220193
KGPM 220150Z 11009KT 10SM SKC 33/19 A2991
KGPM 220050Z 11009G14KT 10SM SKC 34/18 A2990
KGPM 212350Z 10008KT 10SM SKC 36/17 A2991
KGPM 212250Z 11008KT 10SM SKC 37/17 A2992
KGPM 212150Z 11006KT 10SM SKC 37/17 A2993
KGPM 212050Z 11006KT 10SM SKC 37/18 A2995
KGPM 211950Z 20008KT 10SM SKC 36/18 A2998
KGPM 211850Z 15010KT 10SM SKC 35/19 A3000
KGPM 211750Z 14008KT 10SM SKC 35/19 A3002
KGPM 211650Z 18008KT 10SM SKC 33/19 A3004
KGPM 211550Z 17008KT 10SM SKC 33/19 A3004
KGPM 211450Z 19006KT 10SM SKC 31/22 A3005
KGPM 211350Z 17008KT 10SM SKC 29/22 A3005
KGPM 211250Z 17006KT 10SM SKC 27/21 A3004
KGPM 211150Z 18006KT 10SM SKC 27/21 A3003
KGPM 211135Z AUTO 18004KT 10SM CLR 27/21 A3002 RMK AO2 T02670213
KGPM 211115Z AUTO 20004KT 10SM CLR 27/21 A3002 RMK AO2 T02700213
KGPM 211055Z AUTO 19004KT 10SM CLR 27/21 A3002 RMK AO2 T02720212
KGPM 211035Z AUTO 19006KT 10SM CLR 28/21 A3001 RMK AO2 T02750212
KGPM 211015Z AUTO 18004KT 10SM CLR 28/21 A3001 RMK AO2 T02760212
KGPM 210955Z AUTO 18004KT 10SM CLR 28/21 A3000 RMK AO2 T02770211
KGPM 210935Z AUTO 18006KT 10SM CLR 28/21 A3001 RMK AO2 T02800210
KGPM 210915Z AUTO 17006KT 10SM CLR 28/21 A3001 RMK AO2 T02810210
KGPM 210855Z AUTO 16007KT 10SM CLR 28/21 A3001 RMK AO2 T02820210
KGPM 210835Z AUTO 17004KT 10SM CLR 28/21 A3001 RMK AO2 T02820207
KGPM 210815Z AUTO 16004KT 10SM CLR 29/21 A3002 RMK AO2 T02850205
KGPM 210755Z AUTO 16006KT 10SM CLR 29/21 A3002 RMK AO2 T02860205
KGPM 210735Z AUTO 16005KT 10SM CLR 29/21 A3002 RMK AO2 T02850206
KGPM 210715Z AUTO 15005KT 10SM CLR 29/21 A3002 RMK AO2 T02880207
KGPM 210655Z AUTO 15007KT 10SM CLR 29/21 A3003 RMK AO2 T02910206
KGPM 210635Z AUTO 15006KT 10SM CLR 29/21 A3002 RMK AO2 T02920207
KGPM 210615Z AUTO 15004KT 10SM CLR 29/21 A3003 RMK AO2 T02930205
KGPM 210555Z AUTO 15005KT 10SM CLR 30/21 A3003 RMK AO2 T02950205 10357 20295 403710268
KGPM 210535Z AUTO 14004KT 10SM CLR 30/21 A3003 RMK AO2 T02960207
KGPM 210515Z AUTO 14006KT 10SM CLR 30/21 A3003 RMK AO2 T03000207
KGPM 210455Z AUTO 14007KT 10SM CLR 30/21 A3003 RMK AO2 T03000208
KGPM 210435Z AUTO 14005KT 10SM CLR 30/21 A3003 RMK AO2 T03020210
KGPM 210415Z AUTO 13005KT 10SM CLR 31/21 A3003 RMK AO2 T03050207
KGPM 210355Z AUTO 13006KT 10SM CLR 31/21 A3002 RMK AO2 T03100205
KGPM 210335Z AUTO 13008KT 10SM CLR 31/21 A3002 RMK AO2 T03100205
KGPM 210315Z AUTO 12006KT 10SM CLR 31/20 A3002 RMK AO2 T03120203
KGPM 210255Z AUTO 11006KT 10SM CLR 32/20 A3001 RMK AO2 T03160202
KGPM 210235Z AUTO 11006KT 10SM CLR 32/20 A3001 RMK AO2 T03170202
KGPM 210215Z AUTO 11007KT 10SM CLR 32/20 A3000 RMK AO2 T03210201
KGPM 210150Z 10006KT 10SM SKC 34/19 A2998
KGPM 210050Z 14010G16KT 10SM SKC 34/19 A2998
KGPM 202350Z 14007KT 10SM SKC 36/17 A2998
KGPM 202250Z 14007KT 10SM SKC 36/16 A3000
KGPM 202150Z 10007KT 10SM SKC 37/17 A3002
KGPM 202050Z 21004KT 10SM SKC 37/17 A3003
KGPM 201950Z 21004KT 10SM SKC 36/17 A3006
KGPM 201850Z 21003KT 10SM SKC 36/19 A3008
KGPM 201750Z 21003KT 10SM SKC 35/18 A3011
KGPM 201650Z 17006KT 10SM SKC 34/19 A3013
KGPM 201550Z 20006KT 10SM SKC 33/21 A3013
KGPM 201450Z 20006KT 10SM SKC 31/22 A3014